sensor_id;sensor_type;location;lat;lon;timestamp;P1;durP1;ratioP1;P2;durP2;ratioP2
11037;SDS011;5572;49.540;11.932;2023-10-13T00:02:09;20.93;;;19.87;;
11037;SDS011;5572;49.540;11.932;2023-10-13T00:04:35;22.03;;;20.93;;
11037;SDS011;5572;49.540;11.932;2023-10-13T00:07:02;22.30;;;21.10;;
11037;SDS011;5572;49.540;11.932;2023-10-13T00:09:30;21.73;;;20.63;;
11037;SDS011;5572;49.540;11.932;2023-10-13T00:11:58;21.23;;;20.13;;
11037;SDS011;5572;49.540;11.932;2023-10-13T00:14:25;20.97;;;19.87;;
11037;SDS011;5572;49.540;11.932;2023-10-13T00:16:58;21.03;;;19.93;;
11037;SDS011;5572;49.540;11.932;2023-10-13T00:19:29;20.57;;;19.50;;
11037;SDS011;5572;49.540;11.932;2023-10-13T00:22:03;21.70;;;20.60;;
11037;SDS011;5572;49.540;11.932;2023-10-13T00:24:35;21.60;;;20.50;;
11037;SDS011;5572;49.540;11.932;2023-10-13T00:27:09;21.33;;;20.23;;
11037;SDS011;5572;49.540;11.932;2023-10-13T00:29:52;22.77;;;21.60;;
11037;SDS011;5572;49.540;11.932;2023-10-13T00:32:40;19.43;;;18.47;;
11037;SDS011;5572;49.540;11.932;2023-10-13T00:35:08;23.57;;;22.37;;
11037;SDS011;5572;49.540;11.932;2023-10-13T00:37:36;24.93;;;23.50;;
11037;SDS011;5572;49.540;11.932;2023-10-13T00:40:09;22.03;;;20.93;;
11037;SDS011;5572;49.540;11.932;2023-10-13T00:42:52;21.73;;;20.63;;
11037;SDS011;5572;49.540;11.932;2023-10-13T00:45:19;21.83;;;20.73;;
11037;SDS011;5572;49.540;11.932;2023-10-13T00:47:45;23.20;;;21.90;;
11037;SDS011;5572;49.540;11.932;2023-10-13T00:50:15;19.77;;;18.77;;
11037;SDS011;5572;49.540;11.932;2023-10-13T00:52:42;21.47;;;20.37;;
11037;SDS011;5572;49.540;11.932;2023-10-13T00:55:11;20.43;;;19.43;;
11037;SDS011;5572;49.540;11.932;2023-10-13T00:57:39;24.77;;;23.30;;
11037;SDS011;5572;49.540;11.932;2023-10-13T01:00:08;20.63;;;19.63;;
11037;SDS011;5572;49.540;11.932;2023-10-13T01:02:44;22.10;;;21.00;;
11037;SDS011;5572;49.540;11.932;2023-10-13T01:05:10;20.63;;;19.63;;
11037;SDS011;5572;49.540;11.932;2023-10-13T01:07:44;25.70;;;23.67;;
11037;SDS011;5572;49.540;11.932;2023-10-13T01:10:11;22.10;;;21.00;;
11037;SDS011;5572;49.540;11.932;2023-10-13T01:12:40;21.80;;;20.70;;
11037;SDS011;5572;49.540;11.932;2023-10-13T01:15:09;21.77;;;20.67;;
11037;SDS011;5572;49.540;11.932;2023-10-13T01:17:38;24.43;;;22.97;;
11037;SDS011;5572;49.540;11.932;2023-10-13T01:20:04;20.37;;;19.33;;
11037;SDS011;5572;49.540;11.932;2023-10-13T01:22:33;20.83;;;19.77;;
11037;SDS011;5572;49.540;11.932;2023-10-13T01:25:02;20.83;;;19.73;;
11037;SDS011;5572;49.540;11.932;2023-10-13T01:27:37;23.53;;;22.17;;
11037;SDS011;5572;49.540;11.932;2023-10-13T01:30:04;20.53;;;19.53;;
11037;SDS011;5572;49.540;11.932;2023-10-13T01:32:35;20.47;;;19.47;;
11037;SDS011;5572;49.540;11.932;2023-10-13T01:35:06;18.80;;;17.87;;
11037;SDS011;5572;49.540;11.932;2023-10-13T01:37:33;20.93;;;19.83;;
11037;SDS011;5572;49.540;11.932;2023-10-13T01:39:58;20.07;;;19.00;;
11037;SDS011;5572;49.540;11.932;2023-10-13T01:42:26;20.37;;;19.37;;
11037;SDS011;5572;49.540;11.932;2023-10-13T01:44:55;21.03;;;19.93;;
11037;SDS011;5572;49.540;11.932;2023-10-13T01:47:28;23.27;;;21.97;;
11037;SDS011;5572;49.540;11.932;2023-10-13T01:49:55;20.90;;;19.90;;
11037;SDS011;5572;49.540;11.932;2023-10-13T01:52:23;19.50;;;18.50;;
11037;SDS011;5572;49.540;11.932;2023-10-13T01:54:50;20.73;;;19.63;;
11037;SDS011;5572;49.540;11.932;2023-10-13T01:57:16;20.63;;;19.60;;
11037;SDS011;5572;49.540;11.932;2023-10-13T01:59:44;22.63;;;21.43;;
11037;SDS011;5572;49.540;11.932;2023-10-13T02:02:11;21.33;;;20.23;;
11037;SDS011;5572;49.540;11.932;2023-10-13T02:04:38;19.77;;;18.77;;
11037;SDS011;5572;49.540;11.932;2023-10-13T02:07:14;20.37;;;19.27;;
11037;SDS011;5572;49.540;11.932;2023-10-13T02:09:40;21.23;;;20.13;;
11037;SDS011;5572;49.540;11.932;2023-10-13T02:12:07;20.67;;;19.57;;
11037;SDS011;5572;49.540;11.932;2023-10-13T02:17:47;28.17;;;26.23;;
11037;SDS011;5572;49.540;11.932;2023-10-13T02:20:17;21.63;;;20.53;;
11037;SDS011;5572;49.540;11.932;2023-10-13T02:22:43;23.27;;;21.43;;
11037;SDS011;5572;49.540;11.932;2023-10-13T02:25:14;20.50;;;19.50;;
11037;SDS011;5572;49.540;11.932;2023-10-13T02:27:42;20.30;;;19.20;;
11037;SDS011;5572;49.540;11.932;2023-10-13T02:30:15;20.10;;;19.10;;
11037;SDS011;5572;49.540;11.932;2023-10-13T02:32:40;20.90;;;19.90;;
11037;SDS011;5572;49.540;11.932;2023-10-13T02:35:09;21.70;;;20.60;;
11037;SDS011;5572;49.540;11.932;2023-10-13T02:37:40;22.77;;;21.40;;
11037;SDS011;5572;49.540;11.932;2023-10-13T02:40:09;21.03;;;20.03;;
11037;SDS011;5572;49.540;11.932;2023-10-13T02:42:36;21.40;;;20.30;;
11037;SDS011;5572;49.540;11.932;2023-10-13T02:45:04;22.43;;;21.33;;
11037;SDS011;5572;49.540;11.932;2023-10-13T02:47:32;22.77;;;21.37;;
11037;SDS011;5572;49.540;11.932;2023-10-13T02:49:58;19.00;;;18.10;;
11037;SDS011;5572;49.540;11.932;2023-10-13T02:52:26;20.83;;;19.73;;
11037;SDS011;5572;49.540;11.932;2023-10-13T02:54:52;19.83;;;18.93;;
11037;SDS011;5572;49.540;11.932;2023-10-13T06:01:57;21.90;;;20.70;;
11037;SDS011;5572;49.540;11.932;2023-10-13T09:00:27;2.80;;;2.80;;
11037;SDS011;5572;49.540;11.932;2023-10-13T09:03:14;3.17;;;3.07;;
11037;SDS011;5572;49.540;11.932;2023-10-13T09:05:53;2.90;;;2.90;;
11037;SDS011;5572;49.540;11.932;2023-10-13T09:08:27;2.80;;;2.80;;
11037;SDS011;5572;49.540;11.932;2023-10-13T09:11:01;2.83;;;2.83;;
11037;SDS011;5572;49.540;11.932;2023-10-13T09:13:36;2.80;;;2.80;;
11037;SDS011;5572;49.540;11.932;2023-10-13T09:16:11;3.33;;;3.20;;
11037;SDS011;5572;49.540;11.932;2023-10-13T09:19:07;3.20;;;3.10;;
11037;SDS011;5572;49.540;11.932;2023-10-13T09:21:37;3.20;;;3.10;;
11037;SDS011;5572;49.540;11.932;2023-10-13T09:24:12;2.90;;;2.87;;
11037;SDS011;5572;49.540;11.932;2023-10-13T09:26:52;3.27;;;3.17;;
11037;SDS011;5572;49.540;11.932;2023-10-13T09:29:20;4.73;;;4.33;;
11037;SDS011;5572;49.540;11.932;2023-10-13T09:31:47;3.73;;;3.57;;
11037;SDS011;5572;49.540;11.932;2023-10-13T09:34:25;3.20;;;3.10;;
11037;SDS011;5572;49.540;11.932;2023-10-13T09:36:55;2.87;;;2.87;;
11037;SDS011;5572;49.540;11.932;2023-10-13T09:39:24;2.80;;;2.80;;
11037;SDS011;5572;49.540;11.932;2023-10-13T09:42:00;3.13;;;3.03;;
11037;SDS011;5572;49.540;11.932;2023-10-13T09:44:28;3.70;;;3.60;;
11037;SDS011;5572;49.540;11.932;2023-10-13T09:47:00;3.30;;;3.20;;
11037;SDS011;5572;49.540;11.932;2023-10-13T09:49:33;3.17;;;3.07;;
11037;SDS011;5572;49.540;11.932;2023-10-13T09:52:10;3.60;;;3.50;;
11037;SDS011;5572;49.540;11.932;2023-10-13T09:54:55;3.50;;;3.40;;
11037;SDS011;5572;49.540;11.932;2023-10-13T09:57:27;2.70;;;2.70;;
11037;SDS011;5572;49.540;11.932;2023-10-13T10:00:01;3.17;;;3.07;;
11037;SDS011;5572;49.540;11.932;2023-10-13T10:02:41;2.97;;;2.93;;
11037;SDS011;5572;49.540;11.932;2023-10-13T10:05:09;5.07;;;4.57;;
11037;SDS011;5572;49.540;11.932;2023-10-13T10:07:53;3.57;;;3.43;;
11037;SDS011;5572;49.540;11.932;2023-10-13T10:10:21;4.60;;;3.70;;
11037;SDS011;5572;49.540;11.932;2023-10-13T10:12:48;5.90;;;5.33;;
11037;SDS011;5572;49.540;11.932;2023-10-13T10:15:22;3.63;;;3.53;;
11037;SDS011;5572;49.540;11.932;2023-10-13T10:18:00;3.73;;;3.63;;
11037;SDS011;5572;49.540;11.932;2023-10-13T10:20:27;8.00;;;4.90;;
11037;SDS011;5572;49.540;11.932;2023-10-13T10:23:05;3.50;;;3.37;;
11037;SDS011;5572;49.540;11.932;2023-10-13T10:25:35;4.40;;;4.20;;
11037;SDS011;5572;49.540;11.932;2023-10-13T10:28:04;3.70;;;3.50;;
11037;SDS011;5572;49.540;11.932;2023-10-13T10:30:32;3.60;;;3.50;;
11037;SDS011;5572;49.540;11.932;2023-10-13T10:33:01;2.80;;;2.80;;
11037;SDS011;5572;49.540;11.932;2023-10-13T10:35:33;4.17;;;3.90;;
11037;SDS011;5572;49.540;11.932;2023-10-13T10:38:07;3.20;;;3.10;;
11037;SDS011;5572;49.540;11.932;2023-10-13T10:40:50;7.43;;;6.87;;
11037;SDS011;5572;49.540;11.932;2023-10-13T10:43:22;3.00;;;2.90;;
11037;SDS011;5572;49.540;11.932;2023-10-13T10:45:51;3.97;;;3.77;;
11037;SDS011;5572;49.540;11.932;2023-10-13T10:48:26;3.47;;;3.33;;
11037;SDS011;5572;49.540;11.932;2023-10-13T10:50:59;3.10;;;3.00;;
11037;SDS011;5572;49.540;11.932;2023-10-13T10:53:33;3.57;;;3.37;;
11037;SDS011;5572;49.540;11.932;2023-10-13T10:56:08;3.93;;;3.73;;
11037;SDS011;5572;49.540;11.932;2023-10-13T10:58:44;3.10;;;3.00;;
11037;SDS011;5572;49.540;11.932;2023-10-13T11:01:11;2.90;;;2.90;;
11037;SDS011;5572;49.540;11.932;2023-10-13T11:03:53;4.18;;;3.83;;
11037;SDS011;5572;49.540;11.932;2023-10-13T11:06:22;4.90;;;4.70;;
11037;SDS011;5572;49.540;11.932;2023-10-13T11:08:50;3.40;;;3.30;;
11037;SDS011;5572;49.540;11.932;2023-10-13T11:11:29;3.60;;;3.50;;
11037;SDS011;5572;49.540;11.932;2023-10-13T11:14:00;3.10;;;3.00;;
11037;SDS011;5572;49.540;11.932;2023-10-13T11:16:45;3.30;;;3.20;;
11037;SDS011;5572;49.540;11.932;2023-10-13T11:19:17;3.13;;;3.03;;
11037;SDS011;5572;49.540;11.932;2023-10-13T11:21:50;2.92;;;2.90;;
11037;SDS011;5572;49.540;11.932;2023-10-13T11:24:21;3.80;;;3.70;;
11037;SDS011;5572;49.540;11.932;2023-10-13T11:26:47;3.50;;;3.40;;
11037;SDS011;5572;49.540;11.932;2023-10-13T11:29:30;3.25;;;3.15;;
11037;SDS011;5572;49.540;11.932;2023-10-13T11:31:59;3.20;;;3.10;;
11037;SDS011;5572;49.540;11.932;2023-10-13T11:34:29;4.00;;;3.83;;
11037;SDS011;5572;49.540;11.932;2023-10-13T11:37:04;4.13;;;4.03;;
11037;SDS011;5572;49.540;11.932;2023-10-13T11:39:59;3.95;;;3.85;;
11037;SDS011;5572;49.540;11.932;2023-10-13T11:42:26;4.75;;;4.53;;
11037;SDS011;5572;49.540;11.932;2023-10-13T11:44:52;4.80;;;4.45;;
11037;SDS011;5572;49.540;11.932;2023-10-13T11:47:39;16.83;;;4.85;;
11037;SDS011;5572;49.540;11.932;2023-10-13T11:50:14;4.28;;;4.07;;
11037;SDS011;5572;49.540;11.932;2023-10-13T11:52:52;4.22;;;4.13;;
11037;SDS011;5572;49.540;11.932;2023-10-13T11:55:18;3.97;;;3.88;;
11037;SDS011;5572;49.540;11.932;2023-10-13T11:57:45;3.53;;;3.42;;
11037;SDS011;5572;49.540;11.932;2023-10-13T12:00:12;3.67;;;3.58;;
11037;SDS011;5572;49.540;11.932;2023-10-13T12:02:51;5.28;;;4.97;;
11037;SDS011;5572;49.540;11.932;2023-10-13T12:05:37;3.65;;;3.55;;
11037;SDS011;5572;49.540;11.932;2023-10-13T12:08:31;3.28;;;3.17;;
11037;SDS011;5572;49.540;11.932;2023-10-13T12:11:03;3.25;;;3.15;;
11037;SDS011;5572;49.540;11.932;2023-10-13T12:13:50;3.83;;;3.72;;
11037;SDS011;5572;49.540;11.932;2023-10-13T12:16:17;4.35;;;4.05;;
11037;SDS011;5572;49.540;11.932;2023-10-13T12:18:44;4.20;;;4.00;;
11037;SDS011;5572;49.540;11.932;2023-10-13T12:21:19;3.50;;;3.40;;
11037;SDS011;5572;49.540;11.932;2023-10-13T12:23:46;3.80;;;3.70;;
11037;SDS011;5572;49.540;11.932;2023-10-13T12:26:15;4.10;;;4.00;;
11037;SDS011;5572;49.540;11.932;2023-10-13T12:28:45;3.60;;;3.50;;
11037;SDS011;5572;49.540;11.932;2023-10-13T12:31:17;3.67;;;3.58;;
11037;SDS011;5572;49.540;11.932;2023-10-13T12:33:51;3.67;;;3.58;;
11037;SDS011;5572;49.540;11.932;2023-10-13T12:36:19;4.18;;;3.97;;
11037;SDS011;5572;49.540;11.932;2023-10-13T12:38:56;3.92;;;3.83;;
11037;SDS011;5572;49.540;11.932;2023-10-13T12:41:40;3.90;;;3.80;;
11037;SDS011;5572;49.540;11.932;2023-10-13T12:44:24;4.72;;;4.53;;
11037;SDS011;5572;49.540;11.932;2023-10-13T12:47:08;3.90;;;3.80;;
11037;SDS011;5572;49.540;11.932;2023-10-13T12:49:52;3.88;;;3.78;;
11037;SDS011;5572;49.540;11.932;2023-10-13T12:52:26;3.78;;;3.67;;
11037;SDS011;5572;49.540;11.932;2023-10-13T12:54:57;3.97;;;3.88;;
11037;SDS011;5572;49.540;11.932;2023-10-13T12:57:35;4.10;;;4.00;;
11037;SDS011;5572;49.540;11.932;2023-10-13T13:00:08;3.80;;;3.70;;
11037;SDS011;5572;49.540;11.932;2023-10-13T13:02:46;4.00;;;3.90;;
11037;SDS011;5572;49.540;11.932;2023-10-13T13:05:15;4.30;;;4.20;;
11037;SDS011;5572;49.540;11.932;2023-10-13T13:07:48;3.80;;;3.70;;
11037;SDS011;5572;49.540;11.932;2023-10-13T13:10:19;4.20;;;4.10;;
11037;SDS011;5572;49.540;11.932;2023-10-13T13:12:53;4.47;;;4.28;;
11037;SDS011;5572;49.540;11.932;2023-10-13T13:15:20;4.20;;;4.10;;
11037;SDS011;5572;49.540;11.932;2023-10-13T13:17:48;3.80;;;3.70;;
11037;SDS011;5572;49.540;11.932;2023-10-13T13:20:15;4.10;;;4.00;;
11037;SDS011;5572;49.540;11.932;2023-10-13T13:22:54;4.13;;;4.03;;
11037;SDS011;5572;49.540;11.932;2023-10-13T13:25:27;4.00;;;3.90;;
11037;SDS011;5572;49.540;11.932;2023-10-13T13:27:55;4.13;;;4.03;;
11037;SDS011;5572;49.540;11.932;2023-10-13T13:30:22;6.28;;;5.72;;
11037;SDS011;5572;49.540;11.932;2023-10-13T13:32:55;3.90;;;3.80;;
11037;SDS011;5572;49.540;11.932;2023-10-13T13:35:23;4.25;;;4.10;;
11037;SDS011;5572;49.540;11.932;2023-10-13T13:37:59;3.55;;;3.45;;
11037;SDS011;5572;49.540;11.932;2023-10-13T13:40:35;4.50;;;4.28;;
11037;SDS011;5572;49.540;11.932;2023-10-13T13:43:03;4.03;;;3.92;;
11037;SDS011;5572;49.540;11.932;2023-10-13T13:45:30;4.15;;;4.05;;
11037;SDS011;5572;49.540;11.932;2023-10-13T13:47:57;4.00;;;3.90;;
11037;SDS011;5572;49.540;11.932;2023-10-13T13:50:25;5.45;;;4.85;;
11037;SDS011;5572;49.540;11.932;2023-10-13T13:52:54;4.20;;;4.10;;
11037;SDS011;5572;49.540;11.932;2023-10-13T13:55:23;4.13;;;4.03;;
11037;SDS011;5572;49.540;11.932;2023-10-13T13:57:55;4.40;;;4.30;;
11037;SDS011;5572;49.540;11.932;2023-10-13T14:00:22;4.20;;;4.10;;
11037;SDS011;5572;49.540;11.932;2023-10-13T14:03:02;4.03;;;3.92;;
11037;SDS011;5572;49.540;11.932;2023-10-13T14:05:29;4.30;;;4.20;;
11037;SDS011;5572;49.540;11.932;2023-10-13T14:07:55;7.95;;;4.50;;
11037;SDS011;5572;49.540;11.932;2023-10-13T14:10:24;4.78;;;4.57;;
11037;SDS011;5572;49.540;11.932;2023-10-13T14:13:20;4.00;;;3.90;;
11037;SDS011;5572;49.540;11.932;2023-10-13T14:15:47;4.20;;;4.10;;
11037;SDS011;5572;49.540;11.932;2023-10-13T14:18:14;3.83;;;3.72;;
11037;SDS011;5572;49.540;11.932;2023-10-13T14:20:41;3.85;;;3.75;;
11037;SDS011;5572;49.540;11.932;2023-10-13T14:23:07;4.20;;;4.10;;
11037;SDS011;5572;49.540;11.932;2023-10-13T14:25:38;4.10;;;4.00;;
11037;SDS011;5572;49.540;11.932;2023-10-13T14:28:09;4.13;;;4.03;;
11037;SDS011;5572;49.540;11.932;2023-10-13T14:30:36;3.80;;;3.70;;
11037;SDS011;5572;49.540;11.932;2023-10-13T14:33:03;3.90;;;3.80;;
11037;SDS011;5572;49.540;11.932;2023-10-13T14:35:36;4.75;;;4.45;;
11037;SDS011;5572;49.540;11.932;2023-10-13T14:38:03;4.00;;;3.90;;
11037;SDS011;5572;49.540;11.932;2023-10-13T14:40:30;4.18;;;4.07;;
11037;SDS011;5572;49.540;11.932;2023-10-13T14:42:57;4.68;;;4.47;;
11037;SDS011;5572;49.540;11.932;2023-10-13T14:45:24;4.10;;;4.00;;
11037;SDS011;5572;49.540;11.932;2023-10-13T14:47:51;4.10;;;4.00;;
11037;SDS011;5572;49.540;11.932;2023-10-13T14:50:18;3.90;;;3.80;;
11037;SDS011;5572;49.540;11.932;2023-10-13T14:52:45;4.10;;;4.00;;
11037;SDS011;5572;49.540;11.932;2023-10-13T14:55:13;4.05;;;3.95;;
11037;SDS011;5572;49.540;11.932;2023-10-13T14:57:45;4.20;;;4.10;;
11037;SDS011;5572;49.540;11.932;2023-10-13T15:00:14;4.10;;;4.00;;
11037;SDS011;5572;49.540;11.932;2023-10-13T15:02:49;3.90;;;3.80;;
11037;SDS011;5572;49.540;11.932;2023-10-13T15:05:16;5.15;;;4.93;;
11037;SDS011;5572;49.540;11.932;2023-10-13T15:07:43;4.00;;;3.90;;
11037;SDS011;5572;49.540;11.932;2023-10-13T15:10:10;4.30;;;4.20;;
11037;SDS011;5572;49.540;11.932;2023-10-13T15:12:40;4.18;;;4.07;;
11037;SDS011;5572;49.540;11.932;2023-10-13T15:15:07;4.10;;;4.00;;
11037;SDS011;5572;49.540;11.932;2023-10-13T15:17:39;3.92;;;3.83;;
11037;SDS011;5572;49.540;11.932;2023-10-13T15:20:06;5.20;;;4.82;;
11037;SDS011;5572;49.540;11.932;2023-10-13T15:22:35;4.10;;;4.00;;
11037;SDS011;5572;49.540;11.932;2023-10-13T15:25:03;3.78;;;3.67;;
11037;SDS011;5572;49.540;11.932;2023-10-13T15:27:42;3.80;;;3.70;;
11037;SDS011;5572;49.540;11.932;2023-10-13T15:30:20;3.80;;;3.70;;
11037;SDS011;5572;49.540;11.932;2023-10-13T15:32:50;4.00;;;3.90;;
11037;SDS011;5572;49.540;11.932;2023-10-13T15:35:18;3.73;;;3.63;;
11037;SDS011;5572;49.540;11.932;2023-10-13T15:37:48;3.80;;;3.70;;
11037;SDS011;5572;49.540;11.932;2023-10-13T15:40:16;4.10;;;4.00;;
11037;SDS011;5572;49.540;11.932;2023-10-13T15:42:43;3.50;;;3.40;;
11037;SDS011;5572;49.540;11.932;2023-10-13T15:45:11;3.60;;;3.50;;
11037;SDS011;5572;49.540;11.932;2023-10-13T15:47:43;3.80;;;3.70;;
11037;SDS011;5572;49.540;11.932;2023-10-13T15:50:12;3.47;;;3.37;;
11037;SDS011;5572;49.540;11.932;2023-10-13T15:52:43;3.50;;;3.40;;
11037;SDS011;5572;49.540;11.932;2023-10-13T15:55:11;3.40;;;3.30;;
11037;SDS011;5572;49.540;11.932;2023-10-13T15:57:39;3.50;;;3.40;;
11037;SDS011;5572;49.540;11.932;2023-10-13T16:00:07;3.60;;;3.50;;
11037;SDS011;5572;49.540;11.932;2023-10-13T16:02:48;3.50;;;3.40;;
11037;SDS011;5572;49.540;11.932;2023-10-13T16:05:17;3.40;;;3.30;;
11037;SDS011;5572;49.540;11.932;2023-10-13T16:07:44;3.37;;;3.27;;
11037;SDS011;5572;49.540;11.932;2023-10-13T16:10:11;3.60;;;3.50;;
11037;SDS011;5572;49.540;11.932;2023-10-13T16:12:38;3.50;;;3.40;;
11037;SDS011;5572;49.540;11.932;2023-10-13T16:15:05;3.20;;;3.10;;
11037;SDS011;5572;49.540;11.932;2023-10-13T16:17:33;3.30;;;3.20;;
11037;SDS011;5572;49.540;11.932;2023-10-13T16:20:04;3.13;;;3.03;;
11037;SDS011;5572;49.540;11.932;2023-10-13T16:22:42;3.20;;;3.10;;
11037;SDS011;5572;49.540;11.932;2023-10-13T16:25:10;3.37;;;3.27;;
11037;SDS011;5572;49.540;11.932;2023-10-13T16:27:38;3.20;;;3.10;;
11037;SDS011;5572;49.540;11.932;2023-10-13T16:30:08;3.03;;;2.93;;
11037;SDS011;5572;49.540;11.932;2023-10-13T16:32:40;2.90;;;2.90;;
11037;SDS011;5572;49.540;11.932;2023-10-13T16:35:10;2.90;;;2.90;;
11037;SDS011;5572;49.540;11.932;2023-10-13T16:37:38;2.90;;;2.90;;
11037;SDS011;5572;49.540;11.932;2023-10-13T16:40:07;2.93;;;2.93;;
11037;SDS011;5572;49.540;11.932;2023-10-13T16:42:34;2.90;;;2.90;;
11037;SDS011;5572;49.540;11.932;2023-10-13T16:45:03;3.33;;;3.23;;
11037;SDS011;5572;49.540;11.932;2023-10-13T16:47:39;2.80;;;2.80;;
11037;SDS011;5572;49.540;11.932;2023-10-13T16:50:09;2.97;;;2.93;;
11037;SDS011;5572;49.540;11.932;2023-10-13T16:52:36;3.30;;;3.20;;
11037;SDS011;5572;49.540;11.932;2023-10-13T16:55:02;3.23;;;3.13;;
11037;SDS011;5572;49.540;11.932;2023-10-13T16:57:31;3.10;;;3.00;;
11037;SDS011;5572;49.540;11.932;2023-10-13T16:59:57;3.30;;;3.20;;
11037;SDS011;5572;49.540;11.932;2023-10-13T17:02:25;3.00;;;2.90;;
11037;SDS011;5572;49.540;11.932;2023-10-13T17:04:52;3.10;;;3.00;;
11037;SDS011;5572;49.540;11.932;2023-10-13T17:07:22;2.80;;;2.80;;
11037;SDS011;5572;49.540;11.932;2023-10-13T17:09:50;2.90;;;2.90;;
11037;SDS011;5572;49.540;11.932;2023-10-13T17:12:16;2.70;;;2.70;;
11037;SDS011;5572;49.540;11.932;2023-10-13T17:14:45;3.10;;;3.00;;
11037;SDS011;5572;49.540;11.932;2023-10-13T21:02:06;2.20;;;2.20;;
11037;SDS011;5572;49.540;11.932;2023-10-13T21:04:34;2.40;;;2.30;;
11037;SDS011;5572;49.540;11.932;2023-10-13T21:07:01;2.30;;;2.30;;
11037;SDS011;5572;49.540;11.932;2023-10-13T21:09:29;3.50;;;3.20;;
11037;SDS011;5572;49.540;11.932;2023-10-13T21:11:56;2.10;;;2.10;;
11037;SDS011;5572;49.540;11.932;2023-10-13T21:14:29;2.20;;;2.20;;
11037;SDS011;5572;49.540;11.932;2023-10-13T21:16:59;2.10;;;2.10;;
11037;SDS011;5572;49.540;11.932;2023-10-13T21:19:26;2.20;;;2.20;;
11037;SDS011;5572;49.540;11.932;2023-10-13T21:21:53;2.30;;;2.30;;
11037;SDS011;5572;49.540;11.932;2023-10-13T21:24:20;3.23;;;2.87;;
11037;SDS011;5572;49.540;11.932;2023-10-13T21:26:46;4.20;;;2.30;;
11037;SDS011;5572;49.540;11.932;2023-10-13T21:29:14;3.10;;;2.90;;
11037;SDS011;5572;49.540;11.932;2023-10-13T21:31:42;2.23;;;2.23;;
11037;SDS011;5572;49.540;11.932;2023-10-13T21:34:09;2.47;;;2.47;;
11037;SDS011;5572;49.540;11.932;2023-10-13T21:36:37;2.53;;;2.50;;
11037;SDS011;5572;49.540;11.932;2023-10-13T21:39:04;4.03;;;3.70;;
11037;SDS011;5572;49.540;11.932;2023-10-13T21:41:31;2.20;;;2.20;;
11037;SDS011;5572;49.540;11.932;2023-10-13T21:44:02;2.27;;;2.27;;
11037;SDS011;5572;49.540;11.932;2023-10-13T21:46:30;2.40;;;2.40;;
11037;SDS011;5572;49.540;11.932;2023-10-13T21:48:57;2.30;;;2.30;;
11037;SDS011;5572;49.540;11.932;2023-10-13T21:51:30;2.20;;;2.20;;
11037;SDS011;5572;49.540;11.932;2023-10-13T21:53:59;2.20;;;2.20;;
11037;SDS011;5572;49.540;11.932;2023-10-13T21:56:25;4.00;;;3.50;;
11037;SDS011;5572;49.540;11.932;2023-10-13T21:58:53;2.60;;;2.60;;
11037;SDS011;5572;49.540;11.932;2023-10-13T22:01:21;2.60;;;2.50;;
11037;SDS011;5572;49.540;11.932;2023-10-13T22:03:54;2.97;;;2.80;;
11037;SDS011;5572;49.540;11.932;2023-10-13T22:06:33;2.30;;;2.30;;
11037;SDS011;5572;49.540;11.932;2023-10-13T22:09:03;2.00;;;2.00;;
11037;SDS011;5572;49.540;11.932;2023-10-13T22:11:34;2.20;;;2.20;;
11037;SDS011;5572;49.540;11.932;2023-10-13T22:14:01;2.37;;;2.37;;
11037;SDS011;5572;49.540;11.932;2023-10-13T22:16:29;2.00;;;2.00;;
11037;SDS011;5572;49.540;11.932;2023-10-13T22:18:55;2.37;;;2.37;;
11037;SDS011;5572;49.540;11.932;2023-10-13T22:21:23;2.80;;;2.70;;
11037;SDS011;5572;49.540;11.932;2023-10-13T22:23:49;2.10;;;2.10;;
11037;SDS011;5572;49.540;11.932;2023-10-13T22:26:18;2.10;;;2.10;;
11037;SDS011;5572;49.540;11.932;2023-10-13T22:28:45;2.10;;;2.10;;
11037;SDS011;5572;49.540;11.932;2023-10-13T22:31:13;2.20;;;2.20;;
11037;SDS011;5572;49.540;11.932;2023-10-13T22:33:42;2.10;;;2.10;;
11037;SDS011;5572;49.540;11.932;2023-10-13T22:36:10;2.10;;;2.10;;
11037;SDS011;5572;49.540;11.932;2023-10-13T22:38:37;2.20;;;2.20;;
11037;SDS011;5572;49.540;11.932;2023-10-13T22:41:06;2.47;;;2.43;;
11037;SDS011;5572;49.540;11.932;2023-10-13T22:43:37;13.13;;;11.83;;
11037;SDS011;5572;49.540;11.932;2023-10-13T22:46:04;2.03;;;2.03;;
11037;SDS011;5572;49.540;11.932;2023-10-13T22:48:32;2.10;;;2.10;;
11037;SDS011;5572;49.540;11.932;2023-10-13T22:51:00;2.10;;;2.10;;
11037;SDS011;5572;49.540;11.932;2023-10-13T22:53:27;1.97;;;1.97;;
11037;SDS011;5572;49.540;11.932;2023-10-13T22:55:54;2.10;;;2.10;;
11037;SDS011;5572;49.540;11.932;2023-10-13T22:58:20;2.00;;;2.00;;
11037;SDS011;5572;49.540;11.932;2023-10-13T23:00:49;1.90;;;1.90;;
11037;SDS011;5572;49.540;11.932;2023-10-13T23:03:19;1.90;;;1.90;;
11037;SDS011;5572;49.540;11.932;2023-10-13T23:05:47;1.97;;;1.97;;
11037;SDS011;5572;49.540;11.932;2023-10-13T23:08:18;2.10;;;2.10;;
11037;SDS011;5572;49.540;11.932;2023-10-13T23:10:48;1.90;;;1.90;;
11037;SDS011;5572;49.540;11.932;2023-10-13T23:13:16;1.90;;;1.90;;
11037;SDS011;5572;49.540;11.932;2023-10-13T23:15:45;1.80;;;1.80;;
11037;SDS011;5572;49.540;11.932;2023-10-13T23:18:14;1.80;;;1.80;;
11037;SDS011;5572;49.540;11.932;2023-10-13T23:20:43;1.90;;;1.90;;
11037;SDS011;5572;49.540;11.932;2023-10-13T23:23:10;1.93;;;1.93;;
11037;SDS011;5572;49.540;11.932;2023-10-13T23:25:38;1.90;;;1.90;;
11037;SDS011;5572;49.540;11.932;2023-10-13T23:28:06;1.80;;;1.80;;
11037;SDS011;5572;49.540;11.932;2023-10-13T23:30:34;1.90;;;1.90;;
11037;SDS011;5572;49.540;11.932;2023-10-13T23:33:03;2.10;;;2.10;;
11037;SDS011;5572;49.540;11.932;2023-10-13T23:35:32;1.90;;;1.90;;
11037;SDS011;5572;49.540;11.932;2023-10-13T23:37:59;2.00;;;2.00;;
11037;SDS011;5572;49.540;11.932;2023-10-13T23:40:41;2.00;;;2.00;;
11037;SDS011;5572;49.540;11.932;2023-10-13T23:43:10;1.93;;;1.93;;
11037;SDS011;5572;49.540;11.932;2023-10-13T23:45:45;2.00;;;2.00;;
11037;SDS011;5572;49.540;11.932;2023-10-13T23:48:13;1.93;;;1.93;;
11037;SDS011;5572;49.540;11.932;2023-10-13T23:50:42;1.80;;;1.80;;
11037;SDS011;5572;49.540;11.932;2023-10-13T23:53:21;1.90;;;1.90;;
11037;SDS011;5572;49.540;11.932;2023-10-13T23:55:54;1.90;;;1.90;;
11037;SDS011;5572;49.540;11.932;2023-10-13T23:58:27;1.80;;;1.80;;
